createdAt,value
2023-01-17T00:00:15.564Z,97608.78
2023-01-17T00:02:43.709Z,97568.91
2023-01-17T00:05:28.957Z,97612.50
2023-01-17T00:08:14.221Z,97590.91
2023-01-17T00:10:43.660Z,97607.56
2023-01-17T00:13:11.838Z,97600.16
2023-01-17T00:15:40.173Z,97598.28
2023-01-17T00:18:08.195Z,97601.78
2023-01-17T00:20:53.426Z,97593.75
2023-01-17T00:23:56.247Z,97599.31
2023-01-17T00:26:25.761Z,97605.50
2023-01-17T00:28:52.767Z,97600.16
2023-01-17T00:31:21.295Z,97600.16
2023-01-17T00:33:48.120Z,97579.56
2023-01-17T00:36:15.043Z,97595.84
2023-01-17T00:38:41.959Z,97600.16
2023-01-17T00:41:10.857Z,97591.50
2023-01-17T00:43:58.016Z,97597.69
2023-01-17T00:46:43.916Z,97600.97
2023-01-17T00:49:29.241Z,97580.41
2023-01-17T00:52:14.697Z,97562.50
2023-01-17T00:55:00.467Z,97587.81
2023-01-17T00:57:46.199Z,97584.50
2023-01-17T01:00:34.354Z,97553.28
2023-01-17T01:03:19.769Z,97596.84
2023-01-17T01:06:04.933Z,97573.44
2023-01-17T01:08:50.675Z,97600.56
2023-01-17T01:11:39.872Z,97599.72
2023-01-17T01:14:27.550Z,97589.03
2023-01-17T01:17:14.526Z,97585.75
2023-01-17T01:19:59.690Z,97591.91
2023-01-17T01:22:45.445Z,97556.09
2023-01-17T01:25:31.201Z,97577.50
2023-01-17T01:28:22.540Z,97572.16
2023-01-17T01:31:08.063Z,97566.81
2023-01-17T01:33:37.521Z,97521.78
2023-01-17T01:36:09.041Z,97555.28
2023-01-17T01:38:37.334Z,97540.47
2023-01-17T01:41:05.960Z,97567.38
2023-01-17T01:43:46.845Z,97542.13
2023-01-17T01:46:17.733Z,97564.72
2023-01-17T01:48:50.568Z,97557.72
2023-01-17T01:51:25.019Z,97568.44
2023-01-17T01:53:59.830Z,97562.72
2023-01-17T01:56:29.370Z,97564.72
2023-01-17T01:58:59.664Z,97542.31
2023-01-17T02:01:27.928Z,97551.16
2023-01-17T02:03:57.658Z,97556.09
2023-01-17T02:06:30.775Z,97552.78
2023-01-17T02:09:03.278Z,97550.31
2023-01-17T02:11:32.010Z,97550.31
2023-01-17T02:14:00.306Z,97544.97
2023-01-17T02:16:48.854Z,97544.97
2023-01-17T02:20:02.224Z,97544.13
2023-01-17T02:23:02.795Z,97526.03
2023-01-17T02:25:49.963Z,97537.13
2023-01-17T02:28:37.837Z,97536.31
2023-01-17T02:31:15.194Z,97533.84
2023-01-17T02:33:52.387Z,97529.31
2023-01-17T02:36:25.154Z,97511.63
2023-01-17T02:38:58.250Z,97494.00
2023-01-17T02:41:31.725Z,97522.28
2023-01-17T02:43:59.748Z,97525.59
2023-01-17T02:46:29.209Z,97527.22
2023-01-17T02:48:58.944Z,97527.22
2023-01-17T02:51:50.675Z,97522.69
2023-01-17T02:54:51.539Z,97519.63
2023-01-17T02:57:34.093Z,97525.59
2023-01-17T03:00:07.454Z,97518.59
2023-01-17T03:02:48.999Z,97528.47
2023-01-17T03:05:23.250Z,97496.63
2023-01-17T03:07:53.880Z,97501.38
2023-01-17T03:10:22.997Z,97519.41
2023-01-17T03:12:52.164Z,97514.88
2023-01-17T03:15:20.262Z,97443.81
2023-01-17T03:17:53.956Z,97507.47
2023-01-17T03:20:22.804Z,97507.47
2023-01-17T03:22:51.051Z,97505.81
2023-01-17T03:25:19.098Z,97495.09
2023-01-17T03:27:47.418Z,97495.09
2023-01-17T03:30:16.164Z,97502.09
2023-01-17T03:32:44.215Z,97495.09
2023-01-17T03:35:13.913Z,97486.03
2023-01-17T03:37:42.251Z,97482.31
2023-01-17T03:40:11.378Z,97476.97
2023-01-17T03:42:39.907Z,97472.44
2023-01-17T03:45:08.725Z,97473.25
2023-01-17T03:47:37.155Z,97462.53
2023-01-17T03:50:05.787Z,97462.53
2023-01-17T03:52:35.316Z,97453.94
2023-01-17T03:55:03.779Z,97448.56
2023-01-17T03:57:31.837Z,97461.34
2023-01-17T03:59:59.940Z,97428.03
2023-01-17T04:02:27.998Z,97459.28
2023-01-17T04:04:58.323Z,97427.59
2023-01-17T04:07:26.357Z,97418.81
2023-01-17T04:09:56.018Z,97449.56
2023-01-17T04:12:24.141Z,97445.06
2023-01-17T04:14:52.249Z,97440.53
2023-01-17T04:17:21.337Z,97438.66
2023-01-17T04:19:49.825Z,97438.66
2023-01-17T04:22:17.932Z,97397.56
2023-01-17T04:24:46.041Z,97421.78
2023-01-17T04:27:16.078Z,97416.50
2023-01-17T04:29:46.607Z,97428.16
2023-01-17T04:32:14.908Z,97418.50
2023-01-17T04:34:42.988Z,97383.38
2023-01-17T04:37:11.007Z,97420.94
2023-01-17T04:39:39.117Z,97418.50
2023-01-17T04:42:07.279Z,97413.13
2023-01-17T04:44:36.704Z,97394.69
2023-01-17T04:47:04.848Z,97389.31
2023-01-17T04:49:32.907Z,97407.78
2023-01-17T04:52:00.937Z,97413.13
2023-01-17T04:54:28.996Z,97404.06
2023-01-17T04:56:57.559Z,97395.00
2023-01-17T04:59:25.600Z,97407.34
2023-01-17T05:01:55.109Z,97392.91
2023-01-17T05:04:23.190Z,97387.66
2023-01-17T05:06:51.220Z,97383.50
2023-01-17T05:09:19.260Z,97396.63
2023-01-17T05:11:47.307Z,97401.16
2023-01-17T05:14:15.326Z,97396.63
2023-01-17T05:16:43.543Z,97377.34
2023-01-17T05:19:13.056Z,97329.28
2023-01-17T05:21:41.123Z,97385.31
2023-01-17T05:24:09.302Z,97384.28
2023-01-17T05:26:37.524Z,97385.94
2023-01-17T05:29:05.847Z,97351.44
2023-01-17T05:31:36.987Z,97374.03
2023-01-17T05:34:05.839Z,97373.59
2023-01-17T05:36:35.377Z,97382.63
2023-01-17T05:39:03.810Z,97373.59
2023-01-17T05:41:31.953Z,97352.66
2023-01-17T05:44:02.820Z,97365.56
2023-01-17T05:46:30.917Z,97365.56
2023-01-17T05:48:59.175Z,97368.22
2023-01-17T05:51:27.325Z,97379.16
2023-01-17T05:53:56.933Z,97371.91
2023-01-17T05:56:25.093Z,97370.28
2023-01-17T05:58:53.205Z,97371.91
2023-01-17T06:01:21.385Z,97377.28
2023-01-17T06:03:49.470Z,97368.22
2023-01-17T06:06:17.565Z,97362.88
2023-01-17T06:08:45.700Z,97370.91
2023-01-17T06:11:15.356Z,97380.56
2023-01-17T06:13:43.434Z,97362.88
2023-01-17T06:16:11.656Z,97359.88
2023-01-17T06:18:39.722Z,97344.47
2023-01-17T06:21:08.173Z,97373.59
2023-01-17T06:23:36.259Z,97374.38
2023-01-17T06:26:05.322Z,97384.28
2023-01-17T06:28:34.881Z,97366.56
2023-01-17T06:31:07.438Z,97374.38
2023-01-17T06:33:35.473Z,97343.59
2023-01-17T06:36:03.537Z,97369.03
2023-01-17T06:38:31.713Z,97375.22
2023-01-17T06:41:00.669Z,97364.50
2023-01-17T06:43:32.714Z,97375.22
2023-01-17T06:46:02.872Z,97371.50
2023-01-17T06:48:30.903Z,97332.94
2023-01-17T06:50:59.598Z,97370.69
2023-01-17T06:53:27.854Z,97366.13
2023-01-17T06:55:57.768Z,97358.38
2023-01-17T06:58:26.481Z,97313.47
2023-01-17T07:00:54.702Z,97357.56
2023-01-17T07:03:25.987Z,97382.63
2023-01-17T07:05:54.402Z,97333.75
2023-01-17T07:08:22.542Z,97374.38
2023-01-17T07:10:50.700Z,97363.69
2023-01-17T07:13:18.728Z,97348.94
2023-01-17T07:15:46.921Z,97372.53
2023-01-17T07:18:15.281Z,97380.56
2023-01-17T07:20:45.723Z,97368.22
2023-01-17T07:23:13.901Z,97370.28
2023-01-17T07:25:42.069Z,97339.56
2023-01-17T07:28:10.267Z,97389.22
2023-01-17T07:30:38.366Z,97376.25
2023-01-17T07:33:06.537Z,97380.56
2023-01-17T07:35:34.931Z,97378.09
2023-01-17T07:38:05.849Z,97383.06
2023-01-17T07:40:41.551Z,97385.09
2023-01-17T07:43:14.223Z,97389.66
2023-01-17T07:45:43.643Z,97402.00
2023-01-17T07:48:12.824Z,97402.00
2023-01-17T07:50:41.190Z,97397.69
2023-01-17T07:53:10.847Z,97395.00
2023-01-17T07:55:39.120Z,97385.16
2023-01-17T07:58:07.497Z,97327.72
2023-01-17T08:00:35.645Z,97396.63
2023-01-17T08:03:03.885Z,97369.16
2023-01-17T08:05:32.066Z,97397.47
2023-01-17T08:08:00.141Z,97388.41
2023-01-17T08:10:29.763Z,97381.22
2023-01-17T08:12:57.888Z,97354.34
2023-01-17T08:15:26.782Z,97386.97
2023-01-17T08:17:54.927Z,97354.75
2023-01-17T08:20:24.232Z,97395.81
2023-01-17T08:22:55.962Z,97384.28
2023-01-17T08:25:26.035Z,97385.94
2023-01-17T08:27:58.909Z,97383.25
2023-01-17T08:30:27.697Z,97383.25
2023-01-17T08:32:56.169Z,97381.41
2023-01-17T08:35:24.357Z,97379.59
2023-01-17T08:37:56.571Z,97340.34
2023-01-17T08:40:25.464Z,97383.25
2023-01-17T08:42:58.838Z,97345.22
2023-01-17T08:45:27.431Z,97385.09
2023-01-17T08:47:55.578Z,97369.09
2023-01-17T08:50:25.077Z,97380.56
2023-01-17T08:52:53.604Z,97384.28
2023-01-17T08:55:22.004Z,97385.94
2023-01-17T08:57:50.090Z,97387.78
2023-01-17T09:00:20.595Z,97391.28
2023-01-17T09:02:48.664Z,97384.28
2023-01-17T09:05:16.937Z,97378.94
2023-01-17T09:07:45.158Z,97376.47
2023-01-17T09:10:13.605Z,97351.44
2023-01-17T09:12:41.729Z,97392.16
2023-01-17T09:15:10.452Z,97380.34
2023-01-17T09:17:40.363Z,97382.19
2023-01-17T09:20:10.025Z,97375.22
2023-01-17T09:22:39.110Z,97364.53
2023-01-17T09:25:08.758Z,97350.59
2023-01-17T09:27:37.043Z,97373.59
2023-01-17T09:30:06.210Z,97378.94
2023-01-17T09:32:34.360Z,97373.59
2023-01-17T09:35:08.026Z,97353.03
2023-01-17T09:37:37.395Z,97354.06
2023-01-17T09:40:06.579Z,97341.53
2023-01-17T09:42:39.461Z,97358.09
2023-01-17T09:45:16.011Z,97363.31
2023-01-17T09:47:46.558Z,97359.97
2023-01-17T09:50:26.524Z,97308.75
2023-01-17T09:53:00.860Z,97362.88
2023-01-17T09:55:36.020Z,97360.19
2023-01-17T09:58:08.900Z,97357.53
2023-01-17T10:00:50.962Z,97355.84
2023-01-17T10:03:40.232Z,97361.22
2023-01-17T10:06:36.349Z,97350.94
2023-01-17T10:09:22.696Z,97350.56
2023-01-17T10:12:05.515Z,97343.53
2023-01-17T10:14:52.156Z,97302.50
2023-01-17T10:17:36.450Z,97315.03
2023-01-17T10:20:36.261Z,97340.00
2023-01-17T10:23:31.044Z,97331.19
2023-01-17T10:26:02.701Z,97333.84
2023-01-17T10:28:35.596Z,97294.06
2023-01-17T10:31:07.588Z,97307.34
2023-01-17T10:33:41.626Z,97320.47
2023-01-17T10:36:15.455Z,97320.47
2023-01-17T10:38:48.095Z,97326.63
2023-01-17T10:41:22.776Z,97305.41
2023-01-17T10:43:59.555Z,97289.28
2023-01-17T10:46:34.931Z,97273.00
2023-01-17T10:49:03.904Z,97298.25
2023-01-17T10:52:02.430Z,97304.19
2023-01-17T10:54:50.038Z,97303.34
2023-01-17T10:57:22.491Z,97299.84
2023-01-17T10:59:51.174Z,97293.69
2023-01-17T11:02:25.156Z,97296.94
2023-01-17T11:04:55.818Z,97271.50
2023-01-17T11:07:25.589Z,97289.97
2023-01-17T11:09:57.012Z,97273.72
2023-01-17T11:12:30.037Z,97278.50
2023-01-17T11:15:22.911Z,97279.25
2023-01-17T11:18:01.226Z,97280.88
2023-01-17T11:20:34.512Z,97270.41
2023-01-17T11:23:08.065Z,97268.56
2023-01-17T11:25:39.332Z,97269.38
2023-01-17T11:28:19.120Z,97243.94
2023-01-17T11:30:53.909Z,97261.13
2023-01-17T11:33:45.245Z,97250.41
2023-01-17T11:36:19.328Z,97246.09
2023-01-17T11:39:02.958Z,97248.75
2023-01-17T11:41:37.274Z,97238.03
2023-01-17T11:44:22.249Z,97236.41
2023-01-17T11:46:50.755Z,97235.59
2023-01-17T11:49:25.029Z,97224.09
2023-01-17T11:51:56.355Z,97240.16
2023-01-17T11:54:29.027Z,97224.88
2023-01-17T11:57:02.776Z,97219.31
2023-01-17T11:59:34.312Z,97221.97
2023-01-17T12:02:31.897Z,97203.09
2023-01-17T12:05:10.549Z,97211.28
2023-01-17T12:07:51.408Z,97211.28
2023-01-17T12:10:24.975Z,97193.41
2023-01-17T12:13:20.200Z,97183.00
2023-01-17T12:16:00.426Z,97172.28
2023-01-17T12:18:43.328Z,97191.34
2023-01-17T12:21:18.039Z,97188.22
2023-01-17T12:24:07.052Z,97198.09
2023-01-17T12:26:42.341Z,97184.94
2023-01-17T12:29:45.880Z,97184.94
2023-01-17T12:32:34.218Z,97178.56
2023-01-17T12:35:09.504Z,97181.25
2023-01-17T12:37:40.395Z,97178.56
2023-01-17T12:40:22.298Z,97152.50
2023-01-17T12:42:55.982Z,97168.88
2023-01-17T12:45:32.218Z,97174.22
2023-01-17T12:48:06.135Z,97168.88
2023-01-17T12:50:40.131Z,97164.34
2023-01-17T12:53:19.864Z,97169.72
2023-01-17T12:55:55.743Z,97159.81
2023-01-17T12:58:26.216Z,97159.81
2023-01-17T13:01:03.807Z,97165.97
2023-01-17T13:03:43.104Z,97154.47
2023-01-17T13:06:21.577Z,97152.38
2023-01-17T13:08:54.774Z,97131.06
2023-01-17T13:11:30.204Z,97150.75
2023-01-17T13:14:00.005Z,97149.69
2023-01-17T13:16:35.156Z,97143.31
2023-01-17T13:19:09.084Z,97147.00
2023-01-17T13:21:37.501Z,97147.00
2023-01-17T13:24:27.970Z,97132.59
2023-01-17T13:27:35.624Z,97140.88
2023-01-17T13:30:27.637Z,97146.22
2023-01-17T13:33:18.491Z,97133.84
2023-01-17T13:35:58.210Z,97133.06
2023-01-17T13:38:56.099Z,97127.69
2023-01-17T13:41:38.185Z,97110.88
2023-01-17T13:44:25.315Z,97122.34
2023-01-17T13:46:58.809Z,97123.16
2023-01-17T13:49:43.980Z,97129.31
2023-01-17T13:52:33.186Z,97122.34
2023-01-17T13:55:03.395Z,97108.81
2023-01-17T13:57:42.368Z,97115.78
2023-01-17T14:00:59.346Z,97123.97
2023-01-17T14:04:03.786Z,97122.34
2023-01-17T14:06:41.851Z,97076.97
2023-01-17T14:09:16.768Z,97120.69
2023-01-17T14:12:03.669Z,97126.03
2023-01-17T14:14:48.904Z,97072.50
2023-01-17T14:17:55.820Z,97101.84
2023-01-17T14:21:00.456Z,97117.00
2023-01-17T14:23:56.957Z,97115.34
2023-01-17T14:26:42.809Z,97124.41
2023-01-17T14:29:57.883Z,97114.53
2023-01-17T14:32:30.776Z,97101.03
2023-01-17T14:34:58.838Z,97105.38
2023-01-17T14:37:46.937Z,97112.88
2023-01-17T14:40:20.528Z,97117.44
2023-01-17T14:42:55.359Z,97107.53
2023-01-17T14:45:29.013Z,97123.38
2023-01-17T14:47:58.964Z,97030.28
2023-01-17T14:50:30.485Z,97110.81
2023-01-17T14:53:28.266Z,97094.06
2023-01-17T14:56:01.195Z,97117.00
2023-01-17T14:58:31.390Z,97122.34
2023-01-17T15:01:04.938Z,97120.25
2023-01-17T15:03:36.881Z,97125.59
2023-01-17T15:06:12.594Z,97123.16
2023-01-17T15:08:40.831Z,97118.63
2023-01-17T15:11:17.782Z,97125.81
2023-01-17T15:13:49.606Z,97092.03
2023-01-17T15:16:23.602Z,97120.25
2023-01-17T15:18:52.681Z,97123.97
2023-01-17T15:21:23.689Z,97117.00
2023-01-17T15:23:55.479Z,97123.16
2023-01-17T15:26:27.653Z,97084.69
2023-01-17T15:29:04.000Z,97119.44
2023-01-17T15:31:41.279Z,97123.97
2023-01-17T15:34:15.728Z,97118.63
2023-01-17T15:36:43.841Z,97072.41
2023-01-17T15:39:20.418Z,97104.31
2023-01-17T15:41:52.966Z,97120.25
2023-01-17T15:44:47.529Z,97123.97
2023-01-17T15:47:29.022Z,97115.94
2023-01-17T15:49:57.482Z,97117.00
2023-01-17T15:52:25.659Z,97116.63
2023-01-17T15:54:54.878Z,97102.28
2023-01-17T15:57:29.555Z,97113.25
2023-01-17T16:00:01.505Z,97054.75
2023-01-17T16:02:37.202Z,97107.91
2023-01-17T16:05:34.826Z,97107.91
2023-01-17T16:08:26.480Z,97107.91
2023-01-17T16:10:58.304Z,97083.75
2023-01-17T16:13:27.804Z,97107.91
2023-01-17T16:15:56.162Z,97102.56
2023-01-17T16:18:26.602Z,97110.59
2023-01-17T16:21:00.670Z,97108.72
2023-01-17T16:23:29.071Z,97102.56
2023-01-17T16:25:57.286Z,97107.06
2023-01-17T16:28:25.384Z,97107.91
2023-01-17T16:30:55.160Z,97089.47
2023-01-17T16:33:23.285Z,97107.91
2023-01-17T16:35:55.315Z,97094.53
2023-01-17T16:38:23.712Z,97066.56
2023-01-17T16:40:51.756Z,97085.75
2023-01-17T16:43:20.985Z,97100.47
2023-01-17T16:45:50.531Z,97083.22
2023-01-17T16:48:20.584Z,97097.56
2023-01-17T16:50:53.132Z,97103.16
2023-01-17T16:53:24.927Z,97091.84
2023-01-17T16:55:56.154Z,97096.75
2023-01-17T16:58:24.764Z,97032.22
2023-01-17T17:00:55.396Z,97101.28
2023-01-17T17:03:25.099Z,97107.47
2023-01-17T17:05:57.818Z,97084.56
2023-01-17T17:08:25.906Z,97105.84
2023-01-17T17:10:54.281Z,97103.00
2023-01-17T17:13:22.566Z,97073.53
2023-01-17T17:15:50.949Z,97111.19
2023-01-17T17:18:19.597Z,97107.47
2023-01-17T17:20:49.985Z,97109.09
2023-01-17T17:23:18.020Z,97114.44
2023-01-17T17:25:46.071Z,97118.16
2023-01-17T17:28:14.284Z,97119.00
2023-01-17T17:30:42.280Z,97054.34
2023-01-17T17:33:10.904Z,97121.44
2023-01-17T17:35:38.966Z,97118.16
2023-01-17T17:38:08.471Z,97123.53
2023-01-17T17:40:37.018Z,97088.53
2023-01-17T17:43:05.058Z,97059.25
2023-01-17T17:45:33.404Z,97106.50
2023-01-17T17:48:01.566Z,97114.16
2023-01-17T17:50:29.627Z,97119.00
2023-01-17T17:52:57.753Z,97106.28
2023-01-17T17:55:28.528Z,97107.91
2023-01-17T17:57:56.703Z,97108.34
2023-01-17T18:00:25.080Z,97125.16
2023-01-17T18:02:53.105Z,97115.50
2023-01-17T18:05:21.240Z,97125.16
2023-01-17T18:07:50.990Z,97119.78
2023-01-17T18:10:19.236Z,97106.72
2023-01-17T18:12:49.330Z,97094.50
2023-01-17T18:15:18.631Z,97117.44
2023-01-17T18:17:47.327Z,97079.78
2023-01-17T18:20:16.033Z,97123.97
2023-01-17T18:22:44.086Z,97139.59
2023-01-17T18:25:12.831Z,97132.97
2023-01-17T18:27:45.126Z,97125.25
2023-01-17T18:30:15.376Z,97134.84
2023-01-17T18:32:43.721Z,97129.31
2023-01-17T18:35:11.887Z,97149.84
2023-01-17T18:37:40.095Z,97148.22
2023-01-17T18:40:10.231Z,97145.16
2023-01-17T18:42:39.033Z,97131.72
2023-01-17T18:45:08.516Z,97157.28
2023-01-17T18:47:38.797Z,97144.22
2023-01-17T18:50:07.348Z,97132.28
2023-01-17T18:52:35.433Z,97147.41
2023-01-17T18:55:03.543Z,97151.94
2023-01-17T18:57:31.772Z,97153.81
2023-01-17T18:59:59.830Z,97151.94
2023-01-17T19:02:27.957Z,97153.59
2023-01-17T19:04:57.531Z,97162.63
2023-01-17T19:07:29.124Z,97150.75
2023-01-17T19:09:57.201Z,97168.00
2023-01-17T19:12:25.333Z,97168.00
2023-01-17T19:14:53.416Z,97091.09
2023-01-17T19:17:21.671Z,97169.66
2023-01-17T19:19:49.949Z,97173.34
2023-01-17T19:22:19.531Z,97153.34
2023-01-17T19:24:47.680Z,97171.72
2023-01-17T19:27:16.196Z,97168.00
2023-01-17T19:29:44.272Z,97143.84
2023-01-17T19:32:12.354Z,97169.66
2023-01-17T19:34:40.464Z,97178.69
2023-01-17T19:37:08.626Z,97137.31
2023-01-17T19:39:38.299Z,97185.72
2023-01-17T19:42:09.558Z,97168.88
2023-01-17T19:44:38.305Z,97191.06
2023-01-17T19:47:06.540Z,97191.06
2023-01-17T19:49:34.727Z,97142.81
2023-01-17T19:52:03.770Z,97189.41
2023-01-17T19:54:32.082Z,97194.75
2023-01-17T19:57:01.608Z,97175.56
2023-01-17T19:59:29.697Z,97175.56
2023-01-17T20:02:00.334Z,97203.84
2023-01-17T20:04:28.907Z,97199.31
2023-01-17T20:06:59.171Z,97186.88
2023-01-17T20:09:27.385Z,97205.47
2023-01-17T20:11:55.480Z,97216.19
2023-01-17T20:14:25.063Z,97217.00
2023-01-17T20:16:53.865Z,97212.50
2023-01-17T20:19:22.165Z,97163.63
2023-01-17T20:21:50.359Z,97202.94
2023-01-17T20:24:18.415Z,97160.16
2023-01-17T20:26:46.657Z,97232.25
2023-01-17T20:29:16.873Z,97229.56
2023-01-17T20:31:47.510Z,97232.25
2023-01-17T20:34:19.706Z,97202.38
2023-01-17T20:36:48.118Z,97242.16
2023-01-17T20:39:16.909Z,97242.97
2023-01-17T20:41:46.259Z,97238.50
2023-01-17T20:44:18.786Z,97248.94
2023-01-17T20:46:48.986Z,97212.25
2023-01-17T20:49:19.495Z,97256.13
2023-01-17T20:51:48.323Z,97230.34
2023-01-17T20:54:18.386Z,97260.69
2023-01-17T20:56:49.283Z,97230.78
2023-01-17T20:59:19.305Z,97249.63
2023-01-17T21:01:49.158Z,97240.66
2023-01-17T21:04:20.129Z,97250.53
2023-01-17T21:06:51.738Z,97276.75
2023-01-17T21:09:21.620Z,97265.25
2023-01-17T21:11:50.617Z,97279.25
2023-01-17T21:14:19.408Z,97253.59
2023-01-17T21:16:50.343Z,97287.47
2023-01-17T21:19:18.550Z,97289.53
2023-01-17T21:21:48.568Z,97299.81
2023-01-17T21:24:19.215Z,97307.84
2023-01-17T21:26:51.548Z,97315.03
2023-01-17T21:29:19.807Z,97315.03
2023-01-17T21:31:49.458Z,97327.84
2023-01-17T21:34:17.845Z,97315.88
2023-01-17T21:36:45.963Z,97304.47
2023-01-17T21:39:16.039Z,97341.00
2023-01-17T21:41:46.827Z,97334.59
2023-01-17T21:44:16.934Z,97341.81
2023-01-17T21:46:45.101Z,97348.00
2023-01-17T21:49:15.232Z,97333.25
2023-01-17T21:52:02.072Z,97356.03
2023-01-17T21:54:57.362Z,97348.00
2023-01-17T21:57:44.522Z,97348.81
2023-01-17T22:00:15.614Z,97344.34
2023-01-17T22:02:44.374Z,97355.41
2023-01-17T22:05:15.055Z,97366.97
2023-01-17T22:08:03.517Z,97367.78
2023-01-17T22:10:31.649Z,97370.28
2023-01-17T22:12:59.980Z,97371.50
2023-01-17T22:15:28.736Z,97376.84
2023-01-17T22:17:57.141Z,97384.88
2023-01-17T22:20:30.277Z,97383.84
2023-01-17T22:22:58.829Z,97388.38
2023-01-17T22:25:27.676Z,97394.56
2023-01-17T22:27:56.178Z,97400.94
2023-01-17T22:30:24.463Z,97390.84
2023-01-17T22:32:52.488Z,97413.31
2023-01-17T22:35:20.540Z,97410.63
2023-01-17T22:37:49.923Z,97403.63
2023-01-17T22:40:18.753Z,97412.25
2023-01-17T22:42:46.836Z,97410.63
2023-01-17T22:45:16.703Z,97402.84
2023-01-17T22:47:44.807Z,97398.78
2023-01-17T22:50:13.207Z,97435.31
2023-01-17T22:52:42.091Z,97428.34
2023-01-17T22:55:12.490Z,97434.53
2023-01-17T22:57:40.616Z,97441.72
2023-01-17T23:00:14.897Z,97445.22
2023-01-17T23:02:43.812Z,97447.06
2023-01-17T23:05:12.070Z,97446.91
2023-01-17T23:07:46.575Z,97444.41
2023-01-17T23:10:38.126Z,97456.75
2023-01-17T23:13:10.425Z,97458.84
2023-01-17T23:15:56.683Z,97457.59
2023-01-17T23:18:42.028Z,97424.78
2023-01-17T23:21:10.149Z,97459.28
2023-01-17T23:23:38.223Z,97460.91
2023-01-17T23:26:07.792Z,97462.75
2023-01-17T23:28:34.922Z,97466.25
2023-01-17T23:31:05.062Z,97462.53
2023-01-17T23:33:33.252Z,97469.53
2023-01-17T23:36:01.596Z,97451.91
2023-01-17T23:38:34.160Z,97473.25
2023-01-17T23:41:21.771Z,97447.38
2023-01-17T23:43:55.440Z,97474.91
2023-01-17T23:46:24.611Z,97467.88
2023-01-17T23:48:52.927Z,97487.69
2023-01-17T23:51:21.010Z,97483.94
2023-01-17T23:53:49.040Z,97480.69
2023-01-17T23:56:19.880Z,97458.09
2023-01-17T23:58:47.931Z,97493.03
